createdAt,value
2019-05-18T00:01:55.661Z,11.03
2019-05-18T00:04:25.772Z,12.17
2019-05-18T00:06:55.993Z,10.80
2019-05-18T00:09:27.823Z,11.60
2019-05-18T00:11:57.955Z,12.90
2019-05-18T00:14:29.675Z,11.90
2019-05-18T00:16:59.746Z,11.40
2019-05-18T00:19:29.923Z,10.70
2019-05-18T00:21:59.992Z,11.90
2019-05-18T00:24:30.100Z,11.33
2019-05-18T00:27:00.431Z,11.10
2019-05-18T00:29:30.587Z,11.83
2019-05-18T00:32:00.751Z,10.83
2019-05-18T00:34:30.933Z,11.47
2019-05-18T00:37:01.038Z,11.23
2019-05-18T00:39:31.200Z,10.70
2019-05-18T00:42:01.611Z,10.97
2019-05-18T00:44:31.685Z,10.40
2019-05-18T00:47:01.757Z,11.37
2019-05-18T00:49:31.889Z,10.67
2019-05-18T00:52:02.067Z,11.47
2019-05-18T00:54:32.235Z,11.03
2019-05-18T00:57:02.682Z,10.60
2019-05-18T00:59:33.175Z,11.20
2019-05-18T01:02:03.788Z,9.83
2019-05-18T01:04:33.897Z,10.70
2019-05-18T01:07:03.963Z,10.10
2019-05-18T01:09:34.274Z,10.17
2019-05-18T01:12:04.667Z,10.57
2019-05-18T01:14:34.880Z,9.40
2019-05-18T01:17:05.036Z,9.60
2019-05-18T01:19:35.257Z,9.27
2019-05-18T01:22:05.731Z,8.70
2019-05-18T01:24:35.894Z,9.67
2019-05-18T01:27:06.121Z,9.63
2019-05-18T01:29:36.267Z,9.63
2019-05-18T01:32:06.859Z,9.47
2019-05-18T01:34:36.989Z,10.77
2019-05-18T01:37:07.157Z,9.50
2019-05-18T01:39:37.289Z,8.73
2019-05-18T01:42:07.435Z,9.37
2019-05-18T01:44:37.835Z,9.43
2019-05-18T01:47:07.942Z,9.47
2019-05-18T01:49:38.113Z,9.10
2019-05-18T01:52:08.275Z,9.67
2019-05-18T01:54:38.323Z,9.70
2019-05-18T01:57:08.523Z,9.63
2019-05-18T01:59:38.882Z,10.00
2019-05-18T02:02:09.227Z,9.47
2019-05-18T02:04:39.317Z,9.57
2019-05-18T02:07:09.454Z,8.63
2019-05-18T02:09:39.525Z,8.77
2019-05-18T02:12:09.987Z,7.73
2019-05-18T02:14:40.182Z,9.43
2019-05-18T02:17:10.425Z,8.73
2019-05-18T02:19:40.472Z,10.33
2019-05-18T02:22:10.640Z,9.17
2019-05-18T02:24:40.936Z,8.77
2019-05-18T02:27:11.345Z,9.10
2019-05-18T02:29:41.411Z,8.77
2019-05-18T02:32:11.603Z,8.97
2019-05-18T02:34:41.755Z,9.23
2019-05-18T02:37:12.097Z,8.53
2019-05-18T02:39:42.434Z,8.83
2019-05-18T02:42:12.548Z,8.60
2019-05-18T02:44:44.204Z,9.27
2019-05-18T02:47:14.339Z,8.93
2019-05-18T02:49:44.484Z,10.40
2019-05-18T02:52:14.598Z,10.63
2019-05-18T02:54:45.798Z,10.63
2019-05-18T02:57:16.192Z,9.35
2019-05-18T02:59:46.382Z,9.73
2019-05-18T03:02:16.571Z,9.47
2019-05-18T03:04:46.675Z,8.90
2019-05-18T03:07:16.797Z,9.60
2019-05-18T03:09:47.107Z,8.90
2019-05-18T03:12:18.353Z,9.80
2019-05-18T03:14:48.518Z,9.77
2019-05-18T03:17:18.597Z,8.90
2019-05-18T03:19:48.802Z,9.53
2019-05-18T03:22:18.866Z,10.57
2019-05-18T03:24:49.325Z,9.37
2019-05-18T03:27:19.737Z,9.33
2019-05-18T03:29:49.781Z,10.23
2019-05-18T03:32:19.964Z,10.30
2019-05-18T03:34:50.558Z,10.07
2019-05-18T03:37:20.785Z,9.80
2019-05-18T03:39:51.998Z,9.73
2019-05-18T03:42:22.288Z,10.50
2019-05-18T03:44:52.502Z,9.90
2019-05-18T03:47:22.688Z,9.47
2019-05-18T03:49:52.766Z,10.20
2019-05-18T03:52:22.909Z,10.23
2019-05-18T03:54:53.077Z,10.00
2019-05-18T03:57:23.418Z,11.47
2019-05-18T03:59:53.577Z,9.40
2019-05-18T04:02:23.655Z,10.07
2019-05-18T04:04:53.740Z,10.07
2019-05-18T04:07:24.290Z,11.10
2019-05-18T04:09:54.588Z,10.70
2019-05-18T04:12:24.769Z,10.50
2019-05-18T04:14:56.021Z,11.20
2019-05-18T04:17:26.569Z,10.60
2019-05-18T04:19:56.672Z,11.93
2019-05-18T04:22:26.934Z,10.73
2019-05-18T04:24:57.131Z,11.43
2019-05-18T04:27:27.239Z,10.77
2019-05-18T04:29:57.722Z,11.10
2019-05-18T04:32:27.878Z,10.07
2019-05-18T04:34:57.976Z,10.20
2019-05-18T04:37:28.400Z,11.10
2019-05-18T04:39:59.735Z,11.77
2019-05-18T04:42:30.872Z,11.10
2019-05-18T04:45:01.005Z,11.23
2019-05-18T04:47:31.423Z,11.33
2019-05-18T04:50:05.868Z,12.73
2019-05-18T04:52:34.693Z,12.37
2019-05-18T04:55:05.552Z,11.53
2019-05-18T04:57:35.783Z,11.33
2019-05-18T05:00:06.596Z,11.17
2019-05-18T05:02:37.723Z,12.17
2019-05-18T05:05:08.204Z,11.47
2019-05-18T05:07:38.390Z,11.10
2019-05-18T05:10:09.196Z,11.50
2019-05-18T05:12:39.265Z,10.77
2019-05-18T05:15:10.846Z,12.37
2019-05-18T05:17:41.254Z,10.57
2019-05-18T05:20:19.698Z,13.20
2019-05-18T05:22:43.953Z,10.97
2019-05-18T05:25:14.185Z,13.07
2019-05-18T05:27:44.276Z,14.70
2019-05-18T05:30:14.568Z,13.87
2019-05-18T05:32:44.858Z,13.23
2019-05-18T05:35:15.056Z,14.33
2019-05-18T05:37:45.183Z,13.73
2019-05-18T05:40:17.477Z,14.37
2019-05-18T05:42:47.888Z,14.10
2019-05-18T05:45:18.018Z,14.80
2019-05-18T05:47:48.195Z,15.00
2019-05-18T05:50:18.398Z,12.20
2019-05-18T05:52:48.560Z,14.27
2019-05-18T05:55:18.909Z,13.40
2019-05-18T05:57:49.255Z,10.80
2019-05-18T06:00:19.861Z,12.17
2019-05-18T06:02:50.143Z,11.97
2019-05-18T06:05:21.674Z,14.87
2019-05-18T06:07:54.004Z,11.60
2019-05-18T06:10:24.409Z,10.60
2019-05-18T06:12:54.698Z,11.80
2019-05-18T06:15:25.150Z,11.93
2019-05-18T06:17:55.414Z,12.10
2019-05-18T06:20:25.631Z,11.27
2019-05-18T06:22:55.812Z,12.03
2019-05-18T06:25:26.250Z,11.93
2019-05-18T06:27:56.420Z,11.70
2019-05-18T06:30:26.353Z,12.30
2019-05-18T06:32:56.570Z,11.50
2019-05-18T06:35:26.715Z,11.90
2019-05-18T06:37:57.010Z,11.47
2019-05-18T06:40:27.152Z,11.30
2019-05-18T06:42:57.341Z,8.73
2019-05-18T06:45:27.567Z,9.73
2019-05-18T06:47:57.841Z,12.40
2019-05-18T06:50:31.847Z,11.50
2019-05-18T06:53:03.273Z,11.90
2019-05-18T06:55:33.882Z,7.17
2019-05-18T06:58:04.676Z,12.33
2019-05-18T07:00:35.427Z,9.07
2019-05-18T07:03:05.617Z,13.47
2019-05-18T07:05:35.820Z,12.83
2019-05-18T07:08:06.180Z,11.67
2019-05-18T07:10:36.271Z,12.50
2019-05-18T07:13:06.498Z,9.43
2019-05-18T07:15:36.573Z,12.70
2019-05-18T07:18:06.761Z,8.30
2019-05-18T07:20:36.954Z,12.03
2019-05-18T07:23:07.411Z,13.50
2019-05-18T07:25:37.563Z,14.67
2019-05-18T07:28:09.357Z,7.95
2019-05-18T07:30:39.507Z,12.30
2019-05-18T07:33:09.789Z,13.33
2019-05-18T07:35:40.009Z,14.63
2019-05-18T07:38:13.739Z,14.60
2019-05-18T07:40:44.072Z,14.37
2019-05-18T07:43:14.650Z,15.15
2019-05-18T07:45:44.874Z,9.20
2019-05-18T07:48:15.133Z,10.83
2019-05-18T07:50:45.692Z,12.77
2019-05-18T07:53:15.858Z,8.70
2019-05-18T07:55:46.027Z,14.30
2019-05-18T07:58:16.119Z,11.20
2019-05-18T08:00:46.473Z,9.80
2019-05-18T08:03:16.680Z,14.93
2019-05-18T08:05:46.870Z,10.50
2019-05-18T08:08:16.975Z,12.53
2019-05-18T08:10:47.579Z,15.23
2019-05-18T08:13:18.148Z,14.90
2019-05-18T08:15:58.608Z,16.40
2019-05-18T08:18:36.860Z,14.00
2019-05-18T08:21:07.135Z,15.03
2019-05-18T08:23:37.285Z,14.43
2019-05-18T08:26:07.775Z,15.67
2019-05-18T08:28:37.976Z,10.70
2019-05-18T08:31:08.248Z,16.27
2019-05-18T08:33:38.618Z,15.60
2019-05-18T08:36:09.299Z,14.67
2019-05-18T08:38:39.667Z,15.43
2019-05-18T08:41:09.958Z,15.53
2019-05-18T08:43:40.073Z,15.07
2019-05-18T08:46:10.271Z,14.53
2019-05-18T08:48:43.576Z,13.90
2019-05-18T08:51:13.670Z,14.40
2019-05-18T08:53:43.816Z,14.23
2019-05-18T08:56:14.138Z,13.80
2019-05-18T08:58:44.289Z,15.67
2019-05-18T09:01:14.480Z,15.10
2019-05-18T09:03:44.894Z,15.40
2019-05-18T09:06:15.176Z,13.47
2019-05-18T09:08:45.376Z,16.07
2019-05-18T09:11:15.976Z,12.40
2019-05-18T09:13:46.239Z,12.17
2019-05-18T09:16:16.459Z,12.87
2019-05-18T09:18:46.983Z,16.77
2019-05-18T09:21:17.098Z,9.40
2019-05-18T09:23:48.567Z,13.37
2019-05-18T09:26:19.104Z,15.93
2019-05-18T09:28:49.622Z,15.53
2019-05-18T09:31:20.092Z,17.27
2019-05-18T09:33:51.535Z,17.43
2019-05-18T09:36:22.182Z,15.75
2019-05-18T09:38:52.483Z,11.83
2019-05-18T09:41:22.898Z,15.97
2019-05-18T09:43:53.033Z,29.63
2019-05-18T09:46:23.173Z,16.90
2019-05-18T09:48:53.580Z,15.33
2019-05-18T09:51:24.040Z,9.67
2019-05-18T09:53:54.144Z,20.90
2019-05-18T09:56:24.294Z,13.00
2019-05-18T09:58:54.438Z,9.20
2019-05-18T10:01:24.569Z,9.73
2019-05-18T10:03:56.067Z,15.97
2019-05-18T10:06:26.192Z,13.23
2019-05-18T10:08:57.486Z,10.43
2019-05-18T10:11:27.597Z,15.27
2019-05-18T10:13:58.076Z,15.43
2019-05-18T10:16:28.320Z,10.73
2019-05-18T10:18:58.602Z,16.33
2019-05-18T10:21:28.822Z,15.67
2019-05-18T10:23:59.130Z,16.10
2019-05-18T10:26:29.551Z,11.60
2019-05-18T10:28:59.853Z,10.47
2019-05-18T10:31:30.339Z,9.67
2019-05-18T10:34:02.943Z,9.03
2019-05-18T10:36:33.289Z,11.23
2019-05-18T10:39:06.334Z,10.60
2019-05-18T10:41:37.461Z,12.23
2019-05-18T10:44:07.708Z,13.03
2019-05-18T10:46:38.298Z,12.00
2019-05-18T10:49:08.550Z,13.90
2019-05-18T10:51:38.693Z,12.90
2019-05-18T10:54:09.826Z,11.00
2019-05-18T10:56:40.289Z,11.30
2019-05-18T10:59:10.562Z,8.07
2019-05-18T11:01:43.765Z,6.53
2019-05-18T11:04:12.932Z,9.53
2019-05-18T11:06:43.242Z,7.57
2019-05-18T11:09:13.570Z,6.90
2019-05-18T11:11:43.846Z,8.00
2019-05-18T11:14:14.494Z,7.00
2019-05-18T11:16:45.195Z,5.90
2019-05-18T11:19:15.534Z,6.70
2019-05-18T11:21:47.216Z,5.70
2019-05-18T11:24:17.515Z,7.30
2019-05-18T11:26:49.586Z,8.23
2019-05-18T11:29:23.090Z,7.50
2019-05-18T11:31:51.613Z,6.00
2019-05-18T11:34:21.973Z,5.50
2019-05-18T11:36:56.378Z,5.60
2019-05-18T11:39:26.542Z,5.67
2019-05-18T11:41:56.813Z,5.40
2019-05-18T11:44:26.895Z,5.17
2019-05-18T11:46:57.095Z,5.13
2019-05-18T11:49:29.177Z,4.87
2019-05-18T11:51:59.425Z,3.90
2019-05-18T11:54:29.489Z,4.40
2019-05-18T11:56:59.705Z,4.03
2019-05-18T11:59:29.864Z,3.60
2019-05-18T12:02:00.043Z,4.03
2019-05-18T12:04:30.245Z,3.70
2019-05-18T12:07:00.615Z,3.30
2019-05-18T12:09:31.087Z,3.20
2019-05-18T12:12:01.663Z,3.23
2019-05-18T12:14:31.836Z,3.53
2019-05-18T12:17:02.042Z,3.40
2019-05-18T12:19:33.554Z,3.50
2019-05-18T12:22:06.178Z,3.42
2019-05-18T12:24:36.546Z,3.17
2019-05-18T12:27:06.700Z,3.40
2019-05-18T12:29:36.917Z,3.13
2019-05-18T12:32:07.097Z,3.37
2019-05-18T12:34:37.241Z,3.73
2019-05-18T12:37:09.536Z,3.50
2019-05-18T12:39:39.657Z,2.90
2019-05-18T12:42:09.768Z,3.30
2019-05-18T12:44:39.907Z,2.80
2019-05-18T12:47:10.028Z,3.30
2019-05-18T12:49:40.274Z,3.00
2019-05-18T12:52:10.966Z,3.27
2019-05-18T12:54:46.400Z,3.17
2019-05-18T12:57:15.763Z,3.00
2019-05-18T12:59:45.926Z,3.20
2019-05-18T13:02:16.155Z,2.73
2019-05-18T13:04:46.250Z,4.00
2019-05-18T13:07:17.316Z,2.57
2019-05-18T13:09:47.654Z,2.43
2019-05-18T13:12:17.815Z,3.10
2019-05-18T13:14:47.990Z,3.13
2019-05-18T13:17:21.079Z,2.50
2019-05-18T13:19:50.845Z,2.43
2019-05-18T13:22:20.904Z,3.33
2019-05-18T13:24:52.231Z,4.50
2019-05-18T13:27:37.998Z,3.42
2019-05-18T13:29:54.910Z,2.93
2019-05-18T13:32:25.045Z,3.10
2019-05-18T13:34:55.262Z,2.70
2019-05-18T13:37:25.400Z,2.50
2019-05-18T13:39:55.494Z,2.83
2019-05-18T13:42:25.901Z,3.20
2019-05-18T13:44:56.040Z,3.77
2019-05-18T13:47:26.270Z,3.17
2019-05-18T13:49:58.365Z,2.93
2019-05-18T13:52:28.728Z,3.40
2019-05-18T13:55:03.799Z,3.10
2019-05-18T13:57:31.288Z,2.90
2019-05-18T14:00:01.617Z,2.90
2019-05-18T14:02:31.828Z,3.17
2019-05-18T14:05:02.233Z,3.70
2019-05-18T14:07:32.466Z,4.77
2019-05-18T14:10:02.612Z,4.67
2019-05-18T14:12:32.736Z,3.50
2019-05-18T14:15:03.424Z,3.90
2019-05-18T14:17:33.698Z,4.27
2019-05-18T14:20:04.484Z,4.60
2019-05-18T14:22:34.704Z,3.97
2019-05-18T14:25:18.318Z,4.50
2019-05-18T14:27:37.412Z,3.97
2019-05-18T14:30:09.088Z,3.80
2019-05-18T14:32:40.483Z,3.90
2019-05-18T14:35:12.169Z,3.60
2019-05-18T14:37:42.483Z,4.67
2019-05-18T14:40:13.582Z,3.80
2019-05-18T14:42:43.917Z,3.37
2019-05-18T14:45:14.354Z,3.13
2019-05-18T14:47:44.507Z,3.73
2019-05-18T14:50:15.108Z,3.80
2019-05-18T14:52:45.867Z,3.33
2019-05-18T14:55:16.678Z,3.93
2019-05-18T14:57:46.884Z,3.20
2019-05-18T15:00:18.975Z,3.90
2019-05-18T15:02:51.340Z,3.40
2019-05-18T15:05:22.986Z,3.17
2019-05-18T15:07:53.420Z,3.80
2019-05-18T15:10:24.541Z,3.70
2019-05-18T15:12:54.583Z,3.60
2019-05-18T15:15:25.748Z,3.63
2019-05-18T15:17:56.171Z,4.80
2019-05-18T15:20:26.354Z,4.40
2019-05-18T15:22:56.478Z,3.20
2019-05-18T15:25:26.656Z,3.30
2019-05-18T15:27:58.522Z,3.20
2019-05-18T15:30:28.614Z,4.17
2019-05-18T15:32:59.471Z,3.40
2019-05-18T15:35:29.631Z,3.60
2019-05-18T15:37:59.976Z,3.13
2019-05-18T15:40:30.106Z,3.30
2019-05-18T15:43:00.776Z,3.67
2019-05-18T15:45:30.816Z,2.90
2019-05-18T15:48:01.064Z,3.27
2019-05-18T15:50:31.650Z,3.37
2019-05-18T15:53:01.888Z,3.30
2019-05-18T15:55:32.043Z,2.90
2019-05-18T15:58:02.389Z,3.13
2019-05-18T16:00:32.588Z,3.50
2019-05-18T16:03:02.748Z,3.37
2019-05-18T16:05:32.903Z,3.30
2019-05-18T16:08:03.128Z,3.30
2019-05-18T16:10:33.243Z,3.70
2019-05-18T16:13:03.777Z,4.10
2019-05-18T16:15:34.048Z,3.60
2019-05-18T16:18:04.256Z,4.57
2019-05-18T16:20:34.744Z,3.80
2019-05-18T16:23:05.170Z,3.47
2019-05-18T16:25:36.667Z,3.70
2019-05-18T16:28:06.954Z,3.40
2019-05-18T16:30:37.145Z,3.43
2019-05-18T16:33:08.605Z,4.10
2019-05-18T16:35:44.777Z,5.67
2019-05-18T16:38:16.687Z,3.50
2019-05-18T16:40:50.077Z,3.53
2019-05-18T16:43:20.357Z,3.60
2019-05-18T16:45:51.865Z,3.35
2019-05-18T16:48:21.962Z,3.00
2019-05-18T16:50:52.148Z,3.30
2019-05-18T16:53:23.301Z,4.03
2019-05-18T16:55:54.109Z,3.52
2019-05-18T16:58:24.749Z,3.90
2019-05-18T17:00:55.002Z,3.33
2019-05-18T17:03:25.229Z,3.73
2019-05-18T17:05:55.413Z,3.50
2019-05-18T17:08:25.904Z,3.27
2019-05-18T17:10:56.062Z,3.80
2019-05-18T17:13:35.522Z,3.77
2019-05-18T17:16:07.388Z,3.20
2019-05-18T17:18:37.575Z,3.33
2019-05-18T17:21:07.980Z,3.50
2019-05-18T17:23:39.276Z,3.83
2019-05-18T17:26:09.466Z,3.40
2019-05-18T17:28:40.904Z,3.90
2019-05-18T17:31:11.108Z,3.90
2019-05-18T17:33:41.325Z,3.97
2019-05-18T17:36:11.559Z,3.67
2019-05-18T17:38:41.743Z,3.77
2019-05-18T17:41:16.454Z,3.60
2019-05-18T17:43:46.616Z,3.63
2019-05-18T17:46:17.031Z,3.50
2019-05-18T17:48:47.220Z,3.37
2019-05-18T17:51:17.436Z,3.20
2019-05-18T17:53:47.607Z,3.77
2019-05-18T17:56:17.950Z,4.00
2019-05-18T17:58:49.683Z,3.90
2019-05-18T18:01:20.154Z,3.47
2019-05-18T18:03:50.503Z,3.80
2019-05-18T18:06:20.685Z,3.40
2019-05-18T18:08:51.464Z,3.60
2019-05-18T18:11:22.765Z,3.80
2019-05-18T18:13:53.235Z,4.67
2019-05-18T18:16:30.910Z,3.90
2019-05-18T18:19:02.709Z,4.10
2019-05-18T18:21:36.308Z,4.57
2019-05-18T18:24:12.163Z,4.30
2019-05-18T18:26:42.907Z,5.60
2019-05-18T18:29:13.296Z,5.30
2019-05-18T18:31:43.567Z,4.70
2019-05-18T18:34:13.866Z,4.67
2019-05-18T18:36:48.377Z,5.23
2019-05-18T18:39:19.579Z,6.53
2019-05-18T18:41:49.786Z,7.73
2019-05-18T18:44:35.265Z,11.23
2019-05-18T18:47:05.520Z,11.83
2019-05-18T18:49:40.150Z,10.30
2019-05-18T18:52:10.360Z,7.60
2019-05-18T18:54:41.587Z,8.00
2019-05-18T18:57:11.744Z,5.40
2019-05-18T18:59:42.073Z,6.30
2019-05-18T19:02:12.310Z,6.00
2019-05-18T19:04:42.503Z,6.07
2019-05-18T19:07:12.682Z,5.57
2019-05-18T19:09:42.873Z,6.00
2019-05-18T19:12:13.327Z,6.10
2019-05-18T19:14:43.522Z,6.30
2019-05-18T19:17:14.244Z,5.77
2019-05-18T19:19:44.469Z,6.97
2019-05-18T19:22:14.999Z,8.17
2019-05-18T19:24:46.976Z,6.87
2019-05-18T19:27:17.445Z,6.07
2019-05-18T19:29:47.549Z,6.33
2019-05-18T19:32:17.753Z,6.00
2019-05-18T19:34:48.421Z,5.27
2019-05-18T19:37:18.699Z,5.53
2019-05-18T19:39:49.322Z,5.80
2019-05-18T19:42:20.694Z,8.37
2019-05-18T19:44:50.832Z,8.37
2019-05-18T19:47:21.155Z,7.30
2019-05-18T19:49:52.932Z,7.05
2019-05-18T19:52:23.090Z,6.20
2019-05-18T19:54:53.328Z,5.07
2019-05-18T19:57:23.642Z,4.90
2019-05-18T19:59:53.784Z,5.03
2019-05-18T20:02:23.864Z,5.30
2019-05-18T20:05:07.431Z,5.63
2019-05-18T20:07:28.850Z,5.47
2019-05-18T20:09:59.730Z,5.90
2019-05-18T20:12:35.174Z,5.97
2019-05-18T20:15:09.171Z,6.03
2019-05-18T20:17:38.714Z,6.07
2019-05-18T20:20:09.709Z,10.23
2019-05-18T20:22:41.906Z,7.15
2019-05-18T20:25:18.459Z,6.87
2019-05-18T20:27:47.993Z,7.77
2019-05-18T20:30:18.607Z,8.50
2019-05-18T20:32:49.017Z,8.80
2019-05-18T20:35:25.464Z,8.20
2019-05-18T20:38:10.529Z,8.70
2019-05-18T20:40:47.584Z,8.48
2019-05-18T20:43:37.389Z,9.00
2019-05-18T20:46:06.558Z,8.73
2019-05-18T20:48:50.125Z,8.83
2019-05-18T20:51:22.820Z,9.63
2019-05-18T20:53:58.838Z,9.80
2019-05-18T20:56:29.161Z,8.70
2019-05-18T20:59:00.779Z,9.00
2019-05-18T21:01:30.980Z,9.17
2019-05-18T21:04:04.499Z,9.20
2019-05-18T21:06:34.964Z,8.77
2019-05-18T21:09:05.697Z,8.90
2019-05-18T21:11:39.444Z,9.63
2019-05-18T21:14:09.905Z,10.53
2019-05-18T21:16:41.369Z,9.50
2019-05-18T21:19:11.770Z,9.20
2019-05-18T21:21:42.071Z,9.20
2019-05-18T21:24:14.606Z,8.30
2019-05-18T21:26:46.170Z,9.03
2019-05-18T21:29:16.583Z,9.40
2019-05-18T21:31:47.132Z,9.60
2019-05-18T21:34:18.983Z,10.40
2019-05-18T21:36:49.372Z,9.30
2019-05-18T21:39:19.532Z,9.37
2019-05-18T21:41:50.004Z,8.78
2019-05-18T21:44:20.199Z,9.23
2019-05-18T21:46:50.387Z,9.50
2019-05-18T21:49:22.739Z,9.07
2019-05-18T21:51:53.265Z,10.80
2019-05-18T21:54:23.473Z,9.90
2019-05-18T21:56:53.721Z,10.95
2019-05-18T21:59:24.355Z,10.30
2019-05-18T22:01:54.540Z,10.10
2019-05-18T22:04:26.001Z,9.40
2019-05-18T22:06:56.159Z,10.13
2019-05-18T22:09:26.870Z,10.97
2019-05-18T22:11:57.182Z,11.30
2019-05-18T22:14:27.304Z,10.90
2019-05-18T22:16:57.510Z,10.90
2019-05-18T22:19:27.687Z,11.20
2019-05-18T22:21:58.047Z,12.18
2019-05-18T22:24:28.215Z,11.30
2019-05-18T22:26:58.361Z,11.00
2019-05-18T22:29:28.555Z,11.57
2019-05-18T22:31:59.785Z,11.73
2019-05-18T22:34:30.439Z,12.13
2019-05-18T22:37:01.367Z,12.40
2019-05-18T22:39:31.672Z,11.30
2019-05-18T22:42:01.825Z,11.60
2019-05-18T22:44:32.278Z,12.43
2019-05-18T22:47:02.675Z,12.13
2019-05-18T22:49:32.783Z,13.17
2019-05-18T22:52:03.065Z,12.80
2019-05-18T22:54:33.419Z,11.73
2019-05-18T22:57:03.632Z,11.40
2019-05-18T22:59:45.009Z,12.37
2019-05-18T23:02:22.757Z,12.10
2019-05-18T23:05:01.731Z,12.30
2019-05-18T23:07:36.294Z,12.27
2019-05-18T23:10:14.036Z,11.83
2019-05-18T23:12:53.363Z,11.87
2019-05-18T23:15:21.936Z,12.00
2019-05-18T23:17:52.473Z,11.20
2019-05-18T23:20:22.617Z,11.97
2019-05-18T23:22:52.948Z,11.20
2019-05-18T23:25:23.463Z,12.60
2019-05-18T23:27:53.761Z,12.67
2019-05-18T23:30:23.702Z,12.03
2019-05-18T23:32:53.927Z,13.67
2019-05-18T23:35:23.958Z,13.27
2019-05-18T23:37:56.757Z,12.90
2019-05-18T23:40:26.851Z,13.27
2019-05-18T23:42:57.004Z,12.67
2019-05-18T23:45:27.183Z,13.53
2019-05-18T23:47:59.557Z,12.07
2019-05-18T23:50:29.998Z,12.90
2019-05-18T23:53:00.084Z,12.70
2019-05-18T23:55:30.402Z,12.13
2019-05-18T23:58:05.814Z,12.10
